This is the latest recevied weather packets stored in our database for station/object HS9LWR-3. If no packets are shown the sender has not sent any weather packets the latest 10 day(s).
| Time | Temp. | Humidity | Pressure | Rain* | Wind** | Luminosity | Snow |
|---|---|---|---|---|---|---|---|
| 1778049816 | 36.67° C | 50% | 1009 hPa | - | - | 0 W/m² | - |
| 1778049194 | 37.78° C | 47% | 1008 hPa | - | - | 0 W/m² | - |
| 1778048572 | 38.33° C | 45% | 1008 hPa | - | - | 0 W/m² | - |
| 1778047950 | 38.33° C | 44% | 1008 hPa | - | - | 0 W/m² | - |
| 1778047328 | 38.33° C | 43% | 1008 hPa | - | - | 0 W/m² | - |
| 1778046706 | 38.89° C | 42% | 1008 hPa | - | - | 0 W/m² | - |
| 1778046084 | 38.89° C | 42% | 1008 hPa | - | - | 0 W/m² | - |
| 1778045462 | 38.89° C | 42% | 1008 hPa | - | - | 0 W/m² | - |
| 1778044840 | 38.89° C | 42% | 1009 hPa | - | - | 0 W/m² | - |
| 1778044218 | 38.89° C | 42% | 1009 hPa | - | - | 0 W/m² | - |
| 1778043596 | 38.89° C | 42% | 1009 hPa | - | - | 0 W/m² | - |
| 1778042974 | 38.89° C | 42% | 1009 hPa | - | - | 0 W/m² | - |
| 1778042351 | 38.89° C | 42% | 1009 hPa | - | - | 0 W/m² | - |
| 1778041729 | 38.89° C | 43% | 1010 hPa | - | - | 0 W/m² | - |
| 1778041107 | 38.33° C | 44% | 1010 hPa | - | - | 0 W/m² | - |
| 1778040485 | 38.33° C | 44% | 1010 hPa | - | - | 0 W/m² | - |
| 1778039864 | 38.33° C | 44% | 1010 hPa | - | - | 0 W/m² | - |
| 1778039241 | 37.78° C | 46% | 1010 hPa | - | - | 0 W/m² | - |
| 1778038619 | 37.78° C | 47% | 1010 hPa | - | - | 0 W/m² | - |
| 1778037997 | 37.78° C | 47% | 1010 hPa | - | - | 0 W/m² | - |
| 1778037375 | 37.78° C | 48% | 1010 hPa | - | - | 0 W/m² | - |
| 1778036753 | 37.22° C | 48% | 1010 hPa | - | - | 0 W/m² | - |
| 1778036131 | 37.22° C | 49% | 1010 hPa | - | - | 0 W/m² | - |
| 1778035509 | 37.22° C | 49% | 1010 hPa | - | - | 0 W/m² | - |
| 1778034887 | 37.22° C | 49% | 1010 hPa | - | - | 0 W/m² | - |
* Rain since midnight (hover to see other rain measurements)
** Current wind speed in m/s (hover to see current wind gust speed)